Time;durP1;ratioP1;P1;durP2;ratioP2;P2;SDS_P1;SDS_P2;PMS_P1;PMS_P2;Temp;Humidity;BMP_temperature;BMP_pressure;BME280_temperature;BME280_humidity;BME280_pressure;Samples;Min_cycle;Max_cycle;Signal;HPM_P1;HPM_P2
2021/12/14 00:01:13;;;;;;;30.73;20.25;;;6.90;99.90;;;;;;5114014;28;20179;-68
2021/12/14 00:03:42;;;;;;;27.38;19.80;;;6.90;99.90;;;;;;5114025;28;20199;-67
2021/12/14 00:06:10;;;;;;;33.53;19.75;;;6.90;99.90;;;;;;5113939;28;20559;-67
2021/12/14 00:08:48;;;;;;;29.83;20.55;;;6.90;99.90;;;;;;5116786;28;20203;-68
2021/12/14 00:11:33;;;;;;;31.90;21.50;;;7.00;99.90;;;;;;5118186;27;20194;-68
2021/12/14 00:14:25;;;;;;;28.02;20.73;;;6.90;99.90;;;;;;5117667;28;20251;-68
2021/12/14 00:16:57;;;;;;;28.77;21.52;;;6.90;99.90;;;;;;5118168;28;20262;-67
2021/12/14 00:19:26;;;;;;;33.92;20.50;;;6.90;99.90;;;;;;5118026;28;20206;-68
2021/12/14 00:21:55;;;;;;;30.35;21.65;;;6.90;99.90;;;;;;5117685;28;20190;-67
2021/12/14 00:24:26;;;;;;;30.77;19.90;;;6.90;99.90;;;;;;5117388;28;20198;-68
2021/12/14 00:27:04;;;;;;;30.52;20.73;;;6.90;99.90;;;;;;5117483;28;20190;-68
2021/12/14 00:29:38;;;;;;;32.15;20.27;;;6.90;99.90;;;;;;5117434;28;20679;-68
2021/12/14 00:32:11;;;;;;;32.53;20.65;;;6.90;99.90;;;;;;5117526;28;20193;-68
2021/12/14 00:34:41;;;;;;;28.33;20.25;;;6.90;99.90;;;;;;5117555;28;20202;-67
2021/12/14 00:37:12;;;;;;;29.85;20.83;;;6.90;99.90;;;;;;5117692;28;20244;-68
2021/12/14 00:39:39;;;;;;;26.70;20.25;;;6.90;99.90;;;;;;5117204;28;20191;-67
2021/12/14 00:42:07;;;;;;;24.48;18.98;;;6.80;99.90;;;;;;5117295;28;20206;-68
2021/12/14 00:44:34;;;;;;;31.38;20.83;;;6.80;99.90;;;;;;5117636;28;20608;-68
2021/12/14 00:47:02;;;;;;;33.15;19.15;;;6.80;99.90;;;;;;5117268;27;20262;-68
2021/12/14 00:49:28;;;;;;;33.22;20.77;;;6.90;99.90;;;;;;5098820;28;20198;-67
2021/12/14 00:51:55;;;;;;;33.00;19.50;;;6.80;99.90;;;;;;5116736;28;20293;-68
2021/12/14 00:54:22;;;;;;;27.30;19.02;;;6.80;99.90;;;;;;5116802;28;20565;-68
2021/12/14 00:56:50;;;;;;;25.40;20.10;;;6.80;99.90;;;;;;5115964;28;20283;-68
2021/12/14 00:59:19;;;;;;;29.25;20.52;;;6.80;99.90;;;;;;5117231;28;20194;-67
2021/12/14 01:01:54;;;;;;;25.85;19.80;;;6.80;99.90;;;;;;5116979;28;20654;-67
2021/12/14 01:04:28;;;;;;;26.90;20.02;;;6.80;99.90;;;;;;5116683;28;20198;-68
2021/12/14 01:06:55;;;;;;;28.08;20.17;;;6.80;99.90;;;;;;5116749;28;20605;-68
2021/12/14 01:09:26;;;;;;;30.63;20.00;;;6.70;99.90;;;;;;5117028;28;20259;-68
2021/12/14 01:11:56;;;;;;;29.63;21.33;;;6.70;99.90;;;;;;5117056;28;20703;-68
2021/12/14 01:14:31;;;;;;;36.22;20.60;;;6.70;99.90;;;;;;5116523;28;20203;-68
2021/12/14 01:17:10;;;;;;;26.38;19.45;;;6.70;99.90;;;;;;5116398;28;20202;-68
2021/12/14 01:19:40;;;;;;;28.25;19.60;;;6.70;99.90;;;;;;5115839;28;20178;-68
2021/12/14 01:22:18;;;;;;;24.52;18.67;;;6.70;99.90;;;;;;5116478;28;20661;-68
2021/12/14 01:27:37;;;;;;;30.70;20.52;;;6.60;99.90;;;;;;5116553;28;20626;-67
2021/12/14 01:30:12;;;;;;;32.85;20.23;;;6.60;99.90;;;;;;5116601;28;20239;-67
2021/12/14 01:32:42;;;;;;;28.98;20.05;;;6.60;99.90;;;;;;5116493;28;20245;-68
2021/12/14 01:35:13;;;;;;;33.08;21.67;;;6.50;99.90;;;;;;5116452;28;20215;-68
2021/12/14 01:37:47;;;;;;;28.88;20.55;;;6.60;99.90;;;;;;5116030;28;20195;-68
2021/12/14 01:40:46;;;;;;;33.33;20.50;;;6.60;99.90;;;;;;5116326;28;20248;-67
2021/12/14 01:43:08;;;;;;;28.75;20.33;;;6.50;99.90;;;;;;5116013;28;20285;-67
2021/12/14 01:45:34;;;;;;;30.35;20.08;;;6.50;99.90;;;;;;5116008;28;20254;-67
2021/12/14 01:48:02;;;;;;;32.67;21.15;;;6.50;99.90;;;;;;5115961;28;20688;-68
2021/12/14 01:50:36;;;;;;;33.85;20.73;;;6.50;99.90;;;;;;5115576;28;20202;-69
2021/12/14 01:53:04;;;;;;;27.35;20.02;;;6.50;99.90;;;;;;5115823;27;20208;-68
2021/12/14 01:55:33;;;;;;;30.52;19.48;;;6.50;99.90;;;;;;5116113;28;20226;-67
2021/12/14 01:58:03;;;;;;;27.95;18.92;;;6.50;99.90;;;;;;5115735;28;20199;-68
2021/12/14 02:00:38;;;;;;;28.08;18.58;;;6.50;99.90;;;;;;5116206;28;20295;-68
2021/12/14 02:03:09;;;;;;;26.58;19.15;;;6.50;99.90;;;;;;5116128;28;20185;-68
2021/12/14 02:05:40;;;;;;;26.88;18.05;;;6.60;99.90;;;;;;5116122;28;20187;-67
2021/12/14 02:08:25;;;;;;;28.13;18.30;;;6.50;99.90;;;;;;5115022;28;20188;-66
2021/12/14 02:10:54;;;;;;;29.52;19.45;;;6.40;99.90;;;;;;5116101;28;20183;-66
2021/12/14 02:13:24;;;;;;;30.95;19.42;;;6.40;99.90;;;;;;5115545;28;20581;-66
2021/12/14 02:15:51;;;;;;;27.80;19.48;;;6.40;99.90;;;;;;5115954;28;20222;-67
2021/12/14 02:18:23;;;;;;;28.50;19.33;;;6.40;99.90;;;;;;5115279;28;20731;-67
2021/12/14 02:21:02;;;;;;;24.98;17.95;;;6.40;99.90;;;;;;5115618;28;20202;-67
2021/12/14 02:23:30;;;;;;;26.98;18.38;;;6.40;99.90;;;;;;5115333;28;20190;-66
2021/12/14 02:26:03;;;;;;;30.00;20.27;;;6.40;99.90;;;;;;5115198;28;20635;-66
2021/12/14 02:28:30;;;;;;;29.65;19.95;;;6.40;99.90;;;;;;5115500;28;20692;-66
2021/12/14 02:30:58;;;;;;;31.00;18.80;;;6.40;99.90;;;;;;5114367;28;20259;-66
2021/12/14 02:33:33;;;;;;;26.80;18.55;;;6.30;99.90;;;;;;5115101;27;20627;-67
2021/12/14 02:36:05;;;;;;;27.80;18.90;;;6.40;99.90;;;;;;5115075;28;20209;-66
2021/12/14 02:38:34;;;;;;;30.75;20.02;;;6.30;99.90;;;;;;5114895;28;20216;-67
2021/12/14 02:41:06;;;;;;;29.08;20.00;;;6.40;99.90;;;;;;5114892;28;20263;-66
2021/12/14 02:43:40;;;;;;;28.63;19.52;;;6.30;99.90;;;;;;5114673;28;20183;-67
2021/12/14 02:46:12;;;;;;;29.90;20.63;;;6.40;99.90;;;;;;5114883;28;20557;-67
2021/12/14 02:48:42;;;;;;;25.73;19.02;;;6.40;99.90;;;;;;5114980;28;20631;-67
2021/12/14 02:51:18;;;;;;;29.40;19.23;;;6.40;99.90;;;;;;5114767;28;20230;-68
2021/12/14 02:53:50;;;;;;;30.73;19.17;;;6.40;99.90;;;;;;5114523;28;20448;-67
2021/12/14 02:56:20;;;;;;;32.22;21.38;;;6.30;99.90;;;;;;5114660;28;20203;-67
2021/12/14 02:58:48;;;;;;;29.58;18.83;;;6.30;99.90;;;;;;5114789;28;20205;-67
2021/12/14 03:01:17;;;;;;;28.15;20.58;;;6.30;99.90;;;;;;5114897;28;20243;-67
2021/12/14 03:03:44;;;;;;;27.30;20.15;;;6.30;99.90;;;;;;5114839;28;20198;-67
2021/12/14 03:06:12;;;;;;;28.95;20.73;;;6.30;99.90;;;;;;5114451;28;20582;-67
2021/12/14 03:08:46;;;;;;;31.27;20.80;;;6.30;99.90;;;;;;5114409;28;20481;-67
2021/12/14 03:11:13;;;;;;;34.45;22.13;;;6.20;99.90;;;;;;5114291;28;20223;-67
2021/12/14 03:13:51;;;;;;;32.65;22.17;;;6.20;99.90;;;;;;5114294;28;20203;-67
2021/12/14 03:16:27;;;;;;;36.67;23.45;;;6.20;99.90;;;;;;5114656;28;20226;-67
2021/12/14 03:18:55;;;;;;;29.10;21.88;;;6.20;99.90;;;;;;5114322;28;20243;-67
2021/12/14 03:21:27;;;;;;;31.20;22.30;;;6.20;99.90;;;;;;5114470;28;20194;-67
2021/12/14 03:24:01;;;;;;;31.52;22.30;;;6.10;99.90;;;;;;5114276;28;20179;-67
2021/12/14 03:26:30;;;;;;;33.72;23.75;;;6.10;99.90;;;;;;5114078;28;20553;-67
2021/12/14 03:29:00;;;;;;;36.22;23.92;;;6.20;99.90;;;;;;5113760;28;20244;-67
2021/12/14 03:31:37;;;;;;;37.13;23.23;;;6.10;99.90;;;;;;5114123;28;20232;-67
2021/12/14 03:34:22;;;;;;;33.38;22.92;;;6.10;99.90;;;;;;5114084;28;20251;-67
2021/12/14 03:36:53;;;;;;;39.97;23.73;;;6.10;99.90;;;;;;5114283;28;20219;-67
2021/12/14 03:39:42;;;;;;;34.92;25.05;;;6.00;99.90;;;;;;5114206;28;20182;-67
2021/12/14 03:42:23;;;;;;;33.33;24.60;;;6.00;99.90;;;;;;5113931;28;20203;-67
2021/12/14 03:44:55;;;;;;;31.85;22.38;;;6.00;99.90;;;;;;5114194;28;20569;-67
2021/12/14 03:47:35;;;;;;;37.97;25.08;;;6.00;99.90;;;;;;5114059;28;20191;-67
2021/12/14 03:50:08;;;;;;;35.55;22.80;;;6.00;99.90;;;;;;5113689;28;20246;-67
2021/12/14 03:52:37;;;;;;;38.33;24.58;;;5.90;99.90;;;;;;5113909;28;20766;-67
2021/12/14 03:55:30;;;;;;;37.83;23.73;;;5.90;99.90;;;;;;5092808;28;21575;-67
2021/12/14 03:57:57;;;;;;;37.15;24.67;;;6.00;99.90;;;;;;5084166;28;20203;-67
2021/12/14 04:00:34;;;;;;;37.90;25.60;;;6.00;99.90;;;;;;5093222;28;20211;-67
2021/12/14 04:03:05;;;;;;;39.83;24.27;;;5.90;99.90;;;;;;5092388;28;20184;-67
2021/12/14 04:05:34;;;;;;;40.55;27.23;;;5.90;99.90;;;;;;5093475;28;20206;-67
2021/12/14 04:08:01;;;;;;;40.13;27.30;;;5.90;99.90;;;;;;5093223;28;20207;-67
2021/12/14 04:10:30;;;;;;;39.92;26.52;;;5.90;99.90;;;;;;5093424;28;20206;-67
2021/12/14 04:12:57;;;;;;;49.10;27.80;;;5.90;99.90;;;;;;5093696;28;20610;-67
2021/12/14 04:15:24;;;;;;;42.45;27.58;;;5.90;99.90;;;;;;5093199;28;20211;-67
2021/12/14 04:17:52;;;;;;;43.17;26.55;;;6.00;99.90;;;;;;5093569;28;20195;-67
2021/12/14 04:20:32;;;;;;;41.10;27.20;;;6.10;99.90;;;;;;5092283;28;20195;-67
2021/12/14 04:22:59;;;;;;;43.85;27.02;;;6.00;99.90;;;;;;5091854;28;20206;-68
2021/12/14 04:25:33;;;;;;;44.28;26.80;;;6.00;99.90;;;;;;5093300;28;20618;-67
2021/12/14 04:28:04;;;;;;;48.95;27.90;;;6.00;99.90;;;;;;5093227;28;20180;-67
2021/12/14 04:30:31;;;;;;;48.03;27.95;;;6.00;99.90;;;;;;5093513;28;20222;-67
2021/12/14 04:33:05;;;;;;;48.38;29.50;;;6.00;99.90;;;;;;5092132;28;20195;-67
2021/12/14 04:35:37;;;;;;;55.97;31.23;;;6.00;99.90;;;;;;5093053;28;20218;-67
2021/12/14 04:38:12;;;;;;;52.35;29.92;;;6.00;99.90;;;;;;5093443;28;20217;-67
2021/12/14 04:54:30;;;;;;;50.03;32.15;;;5.90;99.90;;;;;;5093238;28;20222;-67
2021/12/14 04:56:58;;;;;;;53.55;34.42;;;5.80;99.90;;;;;;5096914;28;20206;-67
2021/12/14 04:59:30;;;;;;;58.78;34.03;;;5.90;99.90;;;;;;5096461;28;20199;-67
2021/12/14 05:02:25;;;;;;;57.70;33.70;;;5.80;99.90;;;;;;5095545;28;20203;-67
2021/12/14 05:04:54;;;;;;;70.57;33.78;;;5.80;99.90;;;;;;5096574;28;20248;-67
2021/12/14 05:07:32;;;;;;;58.90;34.65;;;5.80;99.90;;;;;;5095159;28;20203;-68
2021/12/14 05:10:07;;;;;;;58.25;33.60;;;5.70;99.90;;;;;;5096103;28;20593;-68
2021/12/14 05:12:36;;;;;;;61.22;33.55;;;5.70;99.90;;;;;;5096205;28;20191;-68
2021/12/14 05:15:09;;;;;;;58.60;34.40;;;5.80;99.90;;;;;;5096364;28;20682;-68
2021/12/14 05:17:38;;;;;;;64.90;35.25;;;5.80;99.90;;;;;;5096435;28;20215;-68
2021/12/14 05:20:08;;;;;;;71.57;36.83;;;5.80;99.90;;;;;;5096182;28;20658;-68
2021/12/14 05:22:37;;;;;;;64.80;36.03;;;5.70;99.90;;;;;;5095979;28;20200;-68
2021/12/14 05:25:11;;;;;;;66.93;38.05;;;5.70;99.90;;;;;;5096276;28;20195;-68
2021/12/14 05:27:43;;;;;;;58.50;34.92;;;5.80;99.90;;;;;;5096113;28;20206;-68
2021/12/14 05:30:29;;;;;;;60.28;34.42;;;5.70;99.90;;;;;;5094499;28;20211;-68
2021/12/14 05:32:59;;;;;;;66.47;33.75;;;5.70;99.90;;;;;;5096326;28;20195;-68
2021/12/14 05:35:26;;;;;;;65.95;34.00;;;5.70;99.90;;;;;;5095955;28;20236;-68
2021/12/14 05:37:55;;;;;;;57.47;34.38;;;5.80;99.90;;;;;;5095734;28;20195;-68
2021/12/14 05:43:05;;;;;;;72.03;37.05;;;5.70;99.90;;;;;;5095993;28;20203;-68
2021/12/14 05:43:17;;;;;;;68.25;33.17;;;5.70;99.90;;;;;;5084880;28;20195;-68
2021/12/14 05:45:48;;;;;;;52.08;29.55;;;5.70;99.90;;;;;;5094820;28;20187;-68
2021/12/14 05:48:21;;;;;;;52.45;29.23;;;5.60;99.90;;;;;;5096667;28;20183;-68
2021/12/14 05:50:52;;;;;;;47.28;25.00;;;5.70;99.90;;;;;;5095989;28;20238;-68
2021/12/14 05:53:26;;;;;;;44.00;25.05;;;5.60;99.90;;;;;;5094544;28;20223;-68
2021/12/14 05:55:53;;;;;;;48.03;26.83;;;5.60;99.90;;;;;;5095689;28;20199;-68
2021/12/14 05:58:22;;;;;;;49.15;25.90;;;5.60;99.90;;;;;;5095867;28;20218;-68
2021/12/14 06:00:57;;;;;;;46.70;25.60;;;5.70;99.90;;;;;;5095274;28;20226;-68
2021/12/14 06:03:33;;;;;;;45.75;25.33;;;5.60;99.90;;;;;;5095211;28;20631;-68
2021/12/14 06:06:01;;;;;;;37.05;23.10;;;5.60;99.90;;;;;;5094740;28;20547;-68
2021/12/14 06:08:33;;;;;;;42.28;22.70;;;5.60;99.90;;;;;;5095615;28;20203;-68
2021/12/14 06:11:00;;;;;;;46.38;22.38;;;5.60;99.90;;;;;;5093857;28;20211;-68
2021/12/14 06:13:43;;;;;;;40.28;23.02;;;5.50;99.90;;;;;;5095237;28;20195;-68
2021/12/14 06:16:31;;;;;;;43.50;23.30;;;5.40;99.90;;;;;;5094955;28;20223;-68
2021/12/14 06:19:15;;;;;;;47.60;22.35;;;5.50;99.90;;;;;;5094930;28;20183;-69
2021/12/14 06:21:45;;;;;;;43.45;22.73;;;5.40;99.90;;;;;;5095118;28;20245;-68
2021/12/14 06:24:12;;;;;;;40.28;20.73;;;5.40;99.90;;;;;;5093722;28;20199;-68
2021/12/14 06:26:49;;;;;;;58.55;26.98;;;5.30;99.90;;;;;;5095251;28;20245;-68
2021/12/14 06:29:27;;;;;;;47.60;24.08;;;5.40;99.90;;;;;;5094926;28;20573;-69
2021/12/14 06:31:54;;;;;;;35.58;19.92;;;5.40;99.90;;;;;;5094450;28;20586;-68
2021/12/14 06:34:28;;;;;;;46.92;23.23;;;5.30;99.90;;;;;;5093070;28;20202;-68
2021/12/14 06:37:03;;;;;;;41.35;21.38;;;5.30;99.90;;;;;;5094386;28;20223;-67
2021/12/14 06:39:50;;;;;;;46.70;21.58;;;5.30;99.90;;;;;;5093752;28;20574;-67
2021/12/14 06:42:17;;;;;;;41.08;18.90;;;5.20;99.90;;;;;;5094207;28;20658;-67
2021/12/14 06:44:43;;;;;;;36.53;19.00;;;5.10;99.90;;;;;;5094239;28;20199;-67
2021/12/14 06:47:09;;;;;;;36.22;19.83;;;5.10;99.90;;;;;;5093907;28;20253;-67
2021/12/14 06:49:36;;;;;;;36.45;18.85;;;5.20;99.90;;;;;;5093861;28;20695;-67
2021/12/14 06:52:03;;;;;;;34.83;16.33;;;5.20;99.90;;;;;;5093850;28;20235;-67
2021/12/14 06:54:31;;;;;;;37.40;15.80;;;5.10;99.90;;;;;;5094016;28;20227;-67
2021/12/14 06:57:01;;;;;;;30.38;15.73;;;5.00;99.90;;;;;;5093946;28;20219;-67
2021/12/14 06:59:27;;;;;;;32.67;17.25;;;5.00;99.90;;;;;;5094261;28;20195;-67
2021/12/14 07:02:06;;;;;;;36.25;18.20;;;5.00;99.90;;;;;;5094047;28;20658;-67
2021/12/14 07:04:35;;;;;;;46.05;18.55;;;4.90;99.90;;;;;;5092520;28;20195;-67
2021/12/14 07:07:06;;;;;;;36.65;18.50;;;4.90;99.90;;;;;;5094118;28;20220;-67
2021/12/14 07:09:50;;;;;;;40.17;18.05;;;4.70;99.90;;;;;;5093910;28;20187;-67
2021/12/14 07:12:23;;;;;;;41.17;17.85;;;4.70;99.90;;;;;;5093747;28;20219;-68
2021/12/14 07:14:50;;;;;;;42.17;20.58;;;4.70;99.90;;;;;;5093696;28;20184;-68
2021/12/14 07:17:27;;;;;;;43.55;20.20;;;4.70;99.90;;;;;;5092890;28;20223;-68
2021/12/14 07:20:15;;;;;;;50.05;20.98;;;4.80;99.90;;;;;;5093499;28;20199;-69
2021/12/14 07:22:51;;;;;;;44.67;20.40;;;4.80;99.90;;;;;;5093830;28;20179;-69
2021/12/14 07:25:27;;;;;;;49.55;20.75;;;4.70;99.90;;;;;;5093818;28;20236;-68
2021/12/14 07:28:07;;;;;;;52.13;23.65;;;4.70;99.90;;;;;;5092021;28;20199;-68
2021/12/14 07:31:02;;;;;;;49.97;23.63;;;4.70;99.90;;;;;;5093305;28;20194;-68
2021/12/14 07:33:31;;;;;;;50.55;22.67;;;4.70;99.90;;;;;;5091737;28;20203;-68
2021/12/14 07:36:25;;;;;;;52.80;24.58;;;4.70;99.90;;;;;;5093508;28;20202;-68
2021/12/14 07:38:54;;;;;;;52.45;23.77;;;4.70;99.90;;;;;;5085657;28;20199;-69
2021/12/14 07:41:23;;;;;;;50.95;22.70;;;4.70;99.90;;;;;;5093586;28;20203;-68
2021/12/14 07:44:09;;;;;;;40.55;18.75;;;4.60;99.90;;;;;;5093482;28;20207;-68
2021/12/14 07:46:56;;;;;;;52.90;22.70;;;4.60;99.90;;;;;;5093400;28;20184;-68
2021/12/14 07:49:31;;;;;;;54.25;22.98;;;4.60;99.90;;;;;;5093653;28;20214;-68
2021/12/14 07:52:16;;;;;;;53.55;24.15;;;4.60;99.90;;;;;;5092692;28;20226;-68
2021/12/14 07:55:03;;;;;;;54.10;21.67;;;4.60;99.90;;;;;;5093010;28;20219;-68
2021/12/14 07:57:33;;;;;;;49.15;21.77;;;4.70;99.90;;;;;;5092612;28;20222;-68
2021/12/14 08:00:15;;;;;;;48.28;20.35;;;4.60;99.90;;;;;;5093306;28;20210;-68
2021/12/14 08:02:45;;;;;;;50.53;22.85;;;4.60;99.90;;;;;;5092959;28;20187;-68
2021/12/14 08:05:24;;;;;;;53.88;22.58;;;4.70;99.90;;;;;;5092959;28;20247;-68
2021/12/14 08:08:13;;;;;;;45.45;21.73;;;4.70;99.90;;;;;;5093354;28;20183;-69
2021/12/14 08:10:48;;;;;;;49.55;21.02;;;4.80;99.90;;;;;;5093276;28;20561;-68
2021/12/14 08:13:19;;;;;;;46.72;20.52;;;4.80;99.90;;;;;;5091544;28;20612;-69
2021/12/14 08:15:52;;;;;;;46.05;19.45;;;4.80;99.90;;;;;;5093325;28;20237;-68
2021/12/14 08:18:29;;;;;;;45.15;20.50;;;4.80;99.90;;;;;;5092636;28;20219;-68
2021/12/14 08:21:01;;;;;;;45.20;19.25;;;4.70;99.90;;;;;;5092551;28;20205;-68
2021/12/14 08:23:34;;;;;;;44.58;20.42;;;4.80;99.90;;;;;;5092269;28;20218;-68
2021/12/14 08:26:12;;;;;;;48.13;21.08;;;4.80;99.90;;;;;;5093520;28;20194;-68
2021/12/14 08:28:47;;;;;;;46.15;19.05;;;4.80;99.90;;;;;;5094212;28;20189;-68
2021/12/14 08:31:14;;;;;;;39.80;19.70;;;4.80;99.90;;;;;;5096841;28;20201;-68
2021/12/14 08:33:40;;;;;;;42.92;20.98;;;4.80;99.90;;;;;;5096975;28;20252;-68
2021/12/14 08:36:11;;;;;;;44.20;18.25;;;5.00;99.90;;;;;;5096651;28;20199;-68
2021/12/14 08:38:37;;;;;;;43.33;18.98;;;4.90;99.90;;;;;;5096862;28;20654;-68
2021/12/14 08:41:17;;;;;;;36.20;16.85;;;4.90;99.90;;;;;;5096953;28;20248;-68
2021/12/14 08:43:52;;;;;;;39.90;17.27;;;4.90;99.90;;;;;;5096694;28;20203;-68
2021/12/14 08:46:28;;;;;;;36.47;17.63;;;4.90;99.90;;;;;;5096515;28;20201;-68
2021/12/14 08:49:00;;;;;;;37.40;16.30;;;4.90;99.90;;;;;;5095175;28;20202;-68
2021/12/14 08:51:31;;;;;;;42.60;18.95;;;4.80;99.90;;;;;;5096311;28;20279;-68
2021/12/14 08:54:10;;;;;;;39.90;17.65;;;4.90;99.90;;;;;;5096441;28;20227;-68
2021/12/14 08:56:57;;;;;;;42.65;18.83;;;5.00;99.90;;;;;;5096599;28;20207;-68
2021/12/14 08:59:24;;;;;;;38.20;17.73;;;4.90;99.90;;;;;;5096491;28;20195;-68
2021/12/14 09:01:52;;;;;;;39.65;18.17;;;5.00;99.90;;;;;;5096681;28;20199;-68
2021/12/14 09:04:31;;;;;;;40.05;18.30;;;5.00;99.90;;;;;;5095091;28;20192;-69
2021/12/14 09:07:11;;;;;;;37.78;17.20;;;5.00;99.90;;;;;;5096458;28;20203;-68
2021/12/14 09:09:42;;;;;;;36.55;16.27;;;5.00;99.90;;;;;;5095922;28;20566;-69
2021/12/14 09:12:16;;;;;;;40.50;18.10;;;5.10;99.90;;;;;;5096400;28;20192;-68
2021/12/14 09:14:45;;;;;;;40.25;18.48;;;5.10;99.90;;;;;;5095931;28;20198;-68
2021/12/14 09:17:16;;;;;;;36.67;17.15;;;5.10;99.90;;;;;;5096001;28;20219;-68
2021/12/14 09:19:48;;;;;;;35.50;15.95;;;5.10;99.90;;;;;;5096249;28;20552;-68
2021/12/14 09:22:22;;;;;;;36.35;17.10;;;5.20;99.90;;;;;;5096077;28;20460;-68
2021/12/14 09:24:49;;;;;;;35.63;15.55;;;5.20;99.90;;;;;;5096108;28;20219;-68
2021/12/14 09:27:20;;;;;;;37.40;16.95;;;5.20;99.90;;;;;;5095761;28;20203;-68
2021/12/14 09:29:48;;;;;;;39.53;17.92;;;5.20;99.90;;;;;;5096069;28;20183;-69
2021/12/14 09:32:20;;;;;;;36.35;16.95;;;5.20;99.90;;;;;;5095676;28;20203;-68
2021/12/14 09:34:47;;;;;;;33.08;16.00;;;5.10;99.90;;;;;;5095937;28;20203;-68
2021/12/14 09:37:15;;;;;;;41.97;15.95;;;5.10;99.90;;;;;;5095388;28;20219;-68
2021/12/14 09:39:53;;;;;;;35.67;17.23;;;5.10;99.90;;;;;;5095557;28;20256;-68
2021/12/14 09:42:24;;;;;;;44.13;17.05;;;5.20;99.90;;;;;;5095406;28;20703;-68
2021/12/14 09:44:53;;;;;;;36.55;17.63;;;5.30;99.90;;;;;;5095478;28;20190;-68
2021/12/14 09:47:26;;;;;;;29.45;14.95;;;5.30;99.90;;;;;;5095462;28;20663;-68
2021/12/14 09:49:53;;;;;;;33.13;16.55;;;5.50;99.90;;;;;;5095295;28;20627;-69
2021/12/14 09:52:25;;;;;;;33.03;17.00;;;5.60;99.90;;;;;;5095251;28;20293;-68
2021/12/14 09:54:53;;;;;;;30.40;16.63;;;5.50;99.90;;;;;;5095366;28;20219;-69
2021/12/14 09:57:32;;;;;;;36.72;16.90;;;5.40;99.90;;;;;;5094847;28;20219;-69
2021/12/14 10:00:04;;;;;;;31.40;15.80;;;5.40;99.90;;;;;;5095257;28;20191;-68
2021/12/14 10:02:35;;;;;;;25.77;13.80;;;5.40;99.90;;;;;;5095346;28;20187;-68
2021/12/14 10:05:11;;;;;;;23.65;13.25;;;5.40;99.90;;;;;;5095022;28;20198;-68
2021/12/14 10:07:38;;;;;;;26.33;14.20;;;5.50;99.90;;;;;;5095066;28;20658;-68
2021/12/14 10:10:10;;;;;;;32.70;15.93;;;5.50;99.90;;;;;;5094748;28;20214;-68
2021/12/14 10:12:49;;;;;;;36.13;17.52;;;5.50;99.90;;;;;;5094680;28;20184;-69
2021/12/14 10:15:32;;;;;;;36.75;18.67;;;5.60;99.90;;;;;;5094772;28;20203;-68
2021/12/14 10:18:06;;;;;;;36.55;19.20;;;5.70;99.90;;;;;;5095008;28;20215;-68
2021/12/14 10:20:52;;;;;;;44.55;19.83;;;5.60;99.90;;;;;;5094998;28;20180;-68
2021/12/14 10:23:23;;;;;;;41.05;19.63;;;5.60;99.90;;;;;;5095049;28;20190;-68
2021/12/14 10:25:51;;;;;;;47.80;22.08;;;5.50;99.90;;;;;;5095076;28;20195;-68
2021/12/14 10:28:18;;;;;;;46.15;22.80;;;5.60;99.90;;;;;;5094850;28;20207;-68
2021/12/14 10:30:56;;;;;;;45.50;21.60;;;5.70;99.90;;;;;;5094534;28;20237;-68
2021/12/14 10:33:25;;;;;;;42.72;21.30;;;5.60;99.90;;;;;;5094823;28;20180;-68
2021/12/14 10:35:57;;;;;;;48.63;20.67;;;5.70;99.90;;;;;;5093164;28;20662;-68
2021/12/14 10:38:34;;;;;;;44.90;21.08;;;5.90;99.90;;;;;;5094542;28;20207;-68
2021/12/14 10:43:59;;;;;;;42.25;21.00;;;5.80;99.90;;;;;;5094265;28;20199;-68
2021/12/14 10:46:33;;;;;;;47.25;23.50;;;5.90;99.90;;;;;;5094634;28;20203;-68
2021/12/14 10:48:59;;;;;;;43.28;21.77;;;5.80;99.90;;;;;;5094100;28;20648;-68
2021/12/14 10:51:30;;;;;;;46.42;24.08;;;5.70;99.90;;;;;;5092302;28;20238;-69
2021/12/14 10:54:00;;;;;;;42.97;20.73;;;5.70;99.90;;;;;;5093989;28;20215;-68
2021/12/14 10:56:35;;;;;;;39.25;22.75;;;5.80;99.90;;;;;;5094030;28;20203;-68
2021/12/14 10:59:07;;;;;;;46.92;20.52;;;5.70;99.90;;;;;;5093837;28;20688;-69
2021/12/14 11:01:35;;;;;;;35.97;20.65;;;5.90;99.90;;;;;;5094074;28;20612;-69
2021/12/14 11:04:08;;;;;;;38.85;19.45;;;5.80;99.90;;;;;;5093787;28;20199;-69
2021/12/14 11:06:37;;;;;;;40.90;20.27;;;5.70;99.90;;;;;;5094000;28;20187;-69
2021/12/14 11:11:50;;;;;;;38.08;20.90;;;5.70;99.90;;;;;;5093653;28;20657;-69
2021/12/14 11:14:21;;;;;;;39.55;21.73;;;5.90;99.90;;;;;;5093426;28;20180;-69
2021/12/14 11:19:47;;;;;;;38.40;21.13;;;5.90;99.90;;;;;;5093810;28;20193;-69
2021/12/14 11:22:26;;;;;;;48.95;23.33;;;6.10;99.90;;;;;;5093287;28;20527;-67
2021/12/14 11:24:57;;;;;;;45.83;23.35;;;6.00;99.90;;;;;;5093997;28;20179;-68
2021/12/14 11:27:40;;;;;;;41.40;21.23;;;6.10;99.90;;;;;;5093598;28;20623;-68
2021/12/14 11:30:20;;;;;;;42.42;21.20;;;6.00;99.90;;;;;;5093386;28;20206;-68
2021/12/14 11:33:17;;;;;;;41.05;22.45;;;6.00;99.90;;;;;;5093558;28;20214;-68
2021/12/14 11:35:53;;;;;;;39.47;20.00;;;6.00;99.90;;;;;;5085394;28;20270;-68
2021/12/14 11:38:57;;;;;;;52.10;24.30;;;6.00;99.90;;;;;;5091403;28;20233;-68
2021/12/14 11:41:50;;;;;;;46.97;23.40;;;6.00;99.90;;;;;;5093526;28;20198;-68
2021/12/14 11:44:20;;;;;;;38.85;21.45;;;6.00;99.90;;;;;;5093476;28;20202;-68
2021/12/14 11:46:56;;;;;;;35.70;21.08;;;6.00;99.90;;;;;;5091659;28;20252;-68
2021/12/14 11:49:39;;;;;;;41.78;22.05;;;6.20;99.90;;;;;;5092628;28;20669;-68
2021/12/14 11:52:06;;;;;;;42.67;21.50;;;6.00;99.90;;;;;;5091510;28;20231;-68
2021/12/14 11:54:44;;;;;;;42.30;21.67;;;6.10;99.90;;;;;;5091636;28;20219;-68
2021/12/14 11:57:11;;;;;;;40.40;23.75;;;6.20;99.90;;;;;;5092539;28;20802;-67
2021/12/14 11:59:38;;;;;;;40.90;22.45;;;6.10;99.90;;;;;;5092841;28;20199;-67
2021/12/14 12:02:06;;;;;;;35.88;20.13;;;6.10;99.90;;;;;;5092565;28;20191;-67
2021/12/14 12:04:36;;;;;;;40.47;20.50;;;6.10;99.90;;;;;;5092198;28;20206;-67
2021/12/14 12:09:47;;;;;;;37.03;19.05;;;6.10;99.90;;;;;;5092786;28;20220;-67
2021/12/14 12:12:29;;;;;;;36.20;18.85;;;6.10;99.90;;;;;;5092477;28;20183;-67
2021/12/14 12:15:03;;;;;;;33.10;18.63;;;6.10;99.90;;;;;;5093264;28;20198;-68
2021/12/14 12:17:33;;;;;;;34.78;17.10;;;6.40;99.90;;;;;;5094768;28;20215;-68
2021/12/14 12:20:18;;;;;;;34.67;18.70;;;6.30;99.90;;;;;;5093109;28;20681;-67
2021/12/14 12:22:49;;;;;;;28.50;17.70;;;6.20;99.90;;;;;;5092631;28;20249;-68
2021/12/14 12:25:27;;;;;;;34.13;16.90;;;6.40;99.90;;;;;;5092506;28;20203;-67
2021/12/14 12:28:03;;;;;;;33.63;18.90;;;6.50;99.90;;;;;;5092940;28;20240;-67
2021/12/14 12:30:36;;;;;;;28.58;17.67;;;6.30;99.90;;;;;;5092975;28;20763;-67
2021/12/14 12:33:17;;;;;;;26.50;15.85;;;6.50;99.90;;;;;;5092593;28;20195;-67
2021/12/14 12:36:04;;;;;;;30.70;17.38;;;6.60;99.90;;;;;;5092949;28;20203;-67
2021/12/14 12:38:39;;;;;;;30.35;17.23;;;6.70;99.90;;;;;;5078250;28;20670;-67
2021/12/14 12:41:23;;;;;;;33.20;15.65;;;6.50;99.90;;;;;;5093140;28;20186;-68
2021/12/14 12:44:00;;;;;;;31.42;17.40;;;6.50;99.90;;;;;;5092116;28;20650;-68
2021/12/14 12:46:29;;;;;;;28.30;16.63;;;6.60;99.90;;;;;;5093109;28;20191;-68
2021/12/14 12:49:19;;;;;;;29.67;16.15;;;6.60;99.90;;;;;;5092756;28;20207;-67
2021/12/14 12:51:56;;;;;;;36.28;17.05;;;6.60;99.90;;;;;;5078100;28;20231;-67
2021/12/14 12:54:29;;;;;;;25.48;16.55;;;6.50;99.90;;;;;;5091936;28;20751;-68
2021/12/14 12:57:13;;;;;;;30.02;18.70;;;6.50;99.90;;;;;;5092396;28;20188;-68
2021/12/14 12:59:43;;;;;;;45.40;19.70;;;6.40;99.90;;;;;;5092673;28;20601;-67
2021/12/14 13:02:12;;;;;;;28.25;17.92;;;6.40;99.90;;;;;;5092314;28;20686;-67
2021/12/14 13:04:41;;;;;;;32.50;19.63;;;6.30;99.90;;;;;;5092326;28;20399;-67
2021/12/14 13:07:09;;;;;;;37.08;20.38;;;6.30;99.90;;;;;;5092279;28;20204;-68
2021/12/14 13:10:01;;;;;;;35.10;20.25;;;6.20;99.90;;;;;;5092428;28;20256;-68
2021/12/14 13:12:43;;;;;;;37.72;20.92;;;6.30;99.90;;;;;;5092475;28;20339;-67
2021/12/14 13:15:40;;;;;;;40.33;22.52;;;6.30;99.90;;;;;;5092327;28;20191;-68
2021/12/14 13:18:24;;;;;;;36.83;20.13;;;6.20;99.90;;;;;;5095439;28;20223;-68
2021/12/14 13:21:00;;;;;;;34.80;20.17;;;6.20;99.90;;;;;;5095627;28;20192;-68
2021/12/14 13:23:44;;;;;;;45.50;22.75;;;6.20;99.90;;;;;;5096133;28;20179;-67
2021/12/14 13:26:29;;;;;;;37.55;20.33;;;6.00;99.90;;;;;;5095925;28;20268;-67
2021/12/14 13:29:16;;;;;;;37.25;21.65;;;6.10;99.90;;;;;;5094109;28;20207;-68
2021/12/14 13:32:03;;;;;;;35.90;19.38;;;6.20;99.90;;;;;;5095441;28;20191;-68
2021/12/14 13:34:59;;;;;;;36.88;20.40;;;6.30;99.90;;;;;;5095808;28;20206;-68
2021/12/14 13:37:31;;;;;;;33.90;19.55;;;6.20;99.90;;;;;;5095546;28;20215;-67